Keaau, HI (96749)

9:45 PM HST on April 27, 2015 (GMT -1000)
Hawaiian Paradies Park | | Change Station
CLOSE
Current Station
Personal Weather Station
Location: Keaau, HI
Elevation: 344 ft
Nearby Weather Stations

Elev 344 ft 19.57 °N, 154.99 °W | Updated 13 minutes ago

Light Rain
Light Rain
70.0 °F
Feels Like 70.0 °F
N
0.0
Wind Variable Wind from SW

Today
High -- | Low -- °F
--% Chance of Precip.
Yesterday
High -- | Low -- °F
Precip. -- in
5:53 AM 6:41 PM
Waxing Gibbous, 71% visible
Pressure 30.10 in
Visibility 8.0 miles
Clouds Mostly Cloudy 4500 ft
Overcast 5500 ft
Dew Point 67 °F
Humidity 89%
Rainfall 0.00 in
Snow Depth Not available.
UV 0 out of 12
Pollen Not available.
Air Quality Not available.
Flu Activity Regional
METAR PHTO 280653Z 17004KT 8SM -RA BKN045 OVC055 22/20 A3010 RMK AO2 RAB12 SLP191 P0001 T02220200

More Conditions Fewer Conditions

Pressure 30.10 in
Visibility 8.0 miles
Clouds Mostly Cloudy 4500 ft
Overcast 5500 ft
Dew Point 67 °F
Humidity 89%
Rainfall 0.00 in
Snow Depth Not available.
UV 0 out of 12
Pollen Not available.
Air Quality Not available.
Flu Activity Regional
METAR PHTO 280653Z 17004KT 8SM -RA BKN045 OVC055 22/20 A3010 RMK AO2 RAB12 SLP191 P0001 T02220200

More Conditions Fewer Conditions

10-Day Weather Forecast

Almanac

Astronomy

Apr. 27, 2015 Rise Set
Actual Time
Civil Twilight
Nautical Twilight
Astronomical Twilight
Moon
Length of Visible Light
Length of Day
Tomorrow will be .
, % of the Moon is Illuminated

Today's Extremes

State Highs State Lows

Community

WunderPhotos

Upload Photos

1,817,596 photos uploaded!

WunderBlogs® & News

Nearby

Air Quality

  Air Quality AQ Index Pollutant
Not available.

Snow Depth

Station Depth Elevation

Earthquake Activity

City Distance Mag. Time & Date
Minimum magnitude displayed is 2.5.

Coastal Water Temperatures

Place Temperature

Stations

Nearby Weather Stations

Station Location Temp. Windchill Dew Point Humidity Wind Precip. Elev Updated Type